Time;durP1;ratioP1;P1;durP2;ratioP2;P2;SDS_P1;SDS_P2;PMS_P1;PMS_P2;Temp;Humidity;BMP_temperature;BMP_pressure;BME280_temperature;BME280_humidity;BME280_pressure;Samples;Min_cycle;Max_cycle;Signal;HPM_P1;HPM_P2
2022/01/31 00:01:44;;;;;;;32.67;7.90;;;;;;;;;;5095946;28;20040;-73
2022/01/31 00:04:10;;;;;;;26.55;7.78;;;;;;;;;;5112883;28;20089;-72
2022/01/31 00:06:36;;;;;;;25.35;7.88;;;;;;;;;;5112596;28;20078;-72
2022/01/31 00:09:02;;;;;;;29.00;9.35;;;5.20;99.90;;;;;;5111168;28;20495;-72
2022/01/31 00:11:28;;;;;;;25.50;9.23;;;;;;;;;;5112868;28;20058;-72
2022/01/31 00:14:01;;;;;;;28.38;10.15;;;;;;;;;;5112430;28;20082;-72
2022/01/31 00:16:32;;;;;;;26.52;10.70;;;;;;;;;;5112841;28;20047;-72
2022/01/31 00:18:58;;;;;;;31.30;10.52;;;;;;;;;;5111232;28;20050;-72
2022/01/31 00:21:24;;;;;;;29.88;9.88;;;;;;;;;;5112586;28;20471;-72
2022/01/31 00:23:50;;;;;;;29.38;9.35;;;;;;;;;;5112514;28;20038;-72
2022/01/31 00:26:16;;;;;;;35.92;9.63;;;;;;;;;;5112340;28;20089;-72
2022/01/31 00:28:42;;;;;;;23.40;8.88;;;;;;;;;;5110854;28;20093;-72
2022/01/31 00:31:08;;;;;;;28.02;9.18;;;;;;;;;;5112824;28;20047;-72
2022/01/31 00:33:34;;;;;;;26.73;9.25;;;;;;;;;;5112578;28;20054;-72
2022/01/31 00:36:00;;;;;;;29.73;8.98;;;;;;;;;;5107951;28;20040;-72
2022/01/31 00:38:26;;;;;;;21.75;7.72;;;;;;;;;;5093469;28;20076;-72
2022/01/31 00:40:53;;;;;;;22.55;9.05;;;;;;;;;;5076564;28;20032;-72
2022/01/31 00:43:20;;;;;;;28.35;8.80;;;;;;;;;;5092203;28;20040;-72
2022/01/31 00:45:58;;;;;;;31.52;8.68;;;;;;;;;;5092209;28;20055;-72
2022/01/31 00:48:26;;;;;;;28.20;8.50;;;;;;;;;;5093024;28;20085;-72
2022/01/31 00:50:52;;;;;;;26.25;8.93;;;;;;;;;;5095744;28;20068;-72
2022/01/31 00:53:18;;;;;;;26.55;9.07;;;;;;;;;;5112331;28;20078;-72
2022/01/31 00:55:44;;;;;;;26.33;8.38;;;;;;;;;;5112295;28;20047;-71
2022/01/31 00:58:10;;;;;;;31.63;9.00;;;;;;;;;;5111986;28;20046;-71
2022/01/31 01:00:37;;;;;;;26.15;9.43;;;;;;;;;;5110587;28;20484;-70
2022/01/31 01:03:03;;;;;;;30.30;9.63;;;4.80;99.90;;;;;;5091892;28;20051;-70
2022/01/31 01:05:29;;;;;;;33.47;9.88;;;;;;;;;;5091929;28;20043;-70
2022/01/31 01:07:56;;;;;;;26.58;9.50;;;;;;;;;;5093219;28;20040;-70
2022/01/31 01:10:22;;;;;;;25.92;9.60;;;;;;;;;;5075146;28;20490;-69
2022/01/31 01:12:48;;;;;;;24.73;8.88;;;;;;;;;;5095614;28;20518;-70
2022/01/31 01:15:15;;;;;;;26.05;10.05;;;4.80;99.90;;;;;;5112445;28;20085;-70
2022/01/31 01:17:42;;;;;;;22.40;8.70;;;;;;;;;;5109985;28;20040;-70
2022/01/31 01:20:09;;;;;;;28.45;8.43;;;4.20;99.90;;;;;;5112132;28;20081;-70
2022/01/31 01:22:35;;;;;;;27.67;8.32;;;;;;;;;;5112329;28;20028;-70
2022/01/31 01:25:04;;;;;;;21.05;7.07;;;;;;;;;;5104405;28;20040;-69
2022/01/31 01:27:30;;;;;;;16.77;6.18;;;;;;;;;;5093154;28;20043;-70
2022/01/31 01:29:57;;;;;;;13.63;5.68;;;;;;;;;;5074971;28;20085;-69
2022/01/31 01:32:25;;;;;;;12.73;4.85;;;;;;;;;;5091948;28;20044;-69
2022/01/31 01:34:53;;;;;;;15.18;4.43;;;;;;;;;;5091915;28;20067;-69
2022/01/31 01:37:19;;;;;;;14.00;5.95;;;;;;;;;;5099964;28;20055;-69
2022/01/31 01:39:46;;;;;;;17.58;5.05;;;;;;;;;;5115083;28;20044;-69
2022/01/31 01:42:12;;;;;;;14.20;4.80;;;;;;;;;;5115606;28;20044;-69
2022/01/31 01:44:51;;;;;;;10.65;4.45;;;3.80;99.90;;;;;;5115680;28;20115;-69
2022/01/31 01:47:21;;;;;;;13.63;4.25;;;4.40;99.90;;;;;;5115898;28;20075;-69
2022/01/31 01:49:47;;;;;;;17.15;3.97;;;5.20;99.90;;;;;;5114652;28;20048;-69
2022/01/31 01:52:13;;;;;;;13.35;3.92;;;;;;;;;;5115326;28;20055;-69
2022/01/31 01:54:39;;;;;;;11.07;4.13;;;;;;;;;;5115590;28;20047;-69
2022/01/31 01:57:05;;;;;;;11.38;4.50;;;5.20;99.90;;;;;;5115294;28;20109;-69
2022/01/31 01:59:37;;;;;;;11.55;4.10;;;;;;;;;;5113074;28;20036;-69
2022/01/31 02:02:04;;;;;;;11.68;3.75;;;5.20;99.90;;;;;;5115525;28;20044;-69
2022/01/31 02:04:30;;;;;;;11.88;5.10;;;;;;;;;;5115313;28;20092;-69
2022/01/31 02:06:56;;;;;;;15.27;4.35;;;;;;;;;;5115659;28;20391;-69
2022/01/31 02:09:24;;;;;;;11.13;3.83;;;4.60;99.90;;;;;;5096333;28;20035;-69
2022/01/31 02:11:54;;;;;;;14.13;5.68;;;;;;;;;;5114617;28;20044;-69
2022/01/31 02:14:20;;;;;;;14.45;4.40;;;;;;;;;;5112715;28;20487;-69
2022/01/31 02:16:49;;;;;;;15.27;5.32;;;4.00;99.90;;;;;;5094593;28;20044;-69
2022/01/31 02:19:16;;;;;;;14.98;5.25;;;;;;;;;;5097394;28;20040;-70
2022/01/31 02:21:48;;;;;;;16.88;5.00;;;4.60;99.90;;;;;;5115013;28;20119;-69
2022/01/31 02:24:14;;;;;;;16.23;4.80;;;;;;;;;;5114835;28;20036;-69
2022/01/31 02:26:41;;;;;;;15.63;4.80;;;;;;;;;;5114697;28;20040;-74
2022/01/31 02:29:11;;;;;;;12.00;4.28;;;;;;;;;;5114279;28;20035;-69
2022/01/31 02:31:37;;;;;;;13.15;4.63;;;;;;;;;;5113375;28;20042;-69
2022/01/31 02:34:03;;;;;;;16.83;4.47;;;;;;;;;;5094977;28;20036;-69
2022/01/31 02:36:29;;;;;;;18.58;4.38;;;;;;;;;;5092040;28;20044;-69
2022/01/31 02:38:55;;;;;;;13.88;4.47;;;;;;;;;;5095616;28;20097;-69
2022/01/31 02:41:21;;;;;;;22.75;5.60;;;5.00;99.90;;;;;;5094184;28;20149;-69
2022/01/31 02:43:50;;;;;;;32.25;5.28;;;;;;;;;;5099465;28;20070;-69
2022/01/31 02:46:16;;;;;;;38.85;6.72;;;;;;;;;;5114393;28;20047;-70
2022/01/31 02:48:42;;;;;;;39.92;6.05;;;;;;;;;;5112152;28;20055;-70
2022/01/31 02:51:10;;;;;;;33.33;5.50;;;;;;;;;;5114305;28;20055;-70
2022/01/31 02:53:40;;;;;;;41.67;6.00;;;5.50;99.90;;;;;;5114322;28;20044;-70
2022/01/31 02:56:07;;;;;;;37.38;6.00;;;;;;;;;;5107438;28;20051;-70
2022/01/31 02:58:33;;;;;;;42.00;6.00;;;;;;;;;;5105071;28;20047;-70
2022/01/31 03:00:59;;;;;;;47.88;5.63;;;;;;;;;;5114041;28;20046;-70
2022/01/31 03:03:25;;;;;;;42.78;6.13;;;;;;;;;;5114087;28;20464;-70
2022/01/31 03:05:52;;;;;;;39.03;6.15;;;;;;;;;;5113645;28;20391;-70
2022/01/31 03:08:18;;;;;;;33.75;5.38;;;;;;;;;;5112051;28;20036;-70
2022/01/31 03:10:44;;;;;;;39.55;6.22;;;;;;;;;;5104628;28;20066;-70
2022/01/31 03:13:10;;;;;;;31.55;4.90;;;;;;;;;;5093434;28;20052;-70
2022/01/31 03:15:36;;;;;;;26.25;4.57;;;;;;;;;;5093465;28;20040;-70
2022/01/31 03:18:05;;;;;;;29.00;4.55;;;;;;;;;;5077895;28;20084;-71
2022/01/31 03:20:31;;;;;;;38.03;5.35;;;;;;;;;;5104906;28;20135;-71
2022/01/31 03:22:58;;;;;;;28.05;5.10;;;;;;;;;;5113534;28;20032;-71
2022/01/31 03:25:24;;;;;;;45.53;4.72;;;;;;;;;;5113294;28;20054;-71
2022/01/31 03:27:50;;;;;;;32.63;4.03;;;;;;;;;;5111854;28;20491;-72
2022/01/31 03:30:18;;;;;;;35.38;4.63;;;6.30;99.90;;;;;;5113505;28;20035;-72
2022/01/31 03:32:45;;;;;;;28.33;5.15;;;;;;;;;;5101320;28;20040;-72
2022/01/31 03:35:11;;;;;;;29.05;4.90;;;;;;;;;;5093149;28;20428;-71
2022/01/31 03:37:37;;;;;;;27.05;4.72;;;;;;;;;;5094191;28;20491;-72
2022/01/31 03:40:04;;;;;;;19.77;3.72;;;6.10;99.90;;;;;;5093075;28;20032;-72
2022/01/31 03:42:30;;;;;;;24.70;3.60;;;6.30;99.90;;;;;;5093155;28;20039;-72
2022/01/31 03:44:56;;;;;;;34.78;5.85;;;5.50;99.90;;;;;;5076153;28;20130;-72
2022/01/31 03:47:22;;;;;;;30.02;3.40;;;;;;;;;;5077000;28;20079;-72
2022/01/31 03:49:49;;;;;;;32.17;4.22;;;6.30;99.90;;;;;;5092547;28;20146;-72
2022/01/31 03:52:15;;;;;;;40.17;4.95;;;;;;;;;;5059320;28;20059;-72
2022/01/31 03:54:42;;;;;;;44.88;5.18;;;;;;;;;;5092999;28;20400;-72
2022/01/31 03:57:08;;;;;;;30.13;3.97;;;;;;;;;;5092532;28;20048;-72
2022/01/31 03:59:34;;;;;;;27.60;5.18;;;;;;;;;;5094932;28;20040;-72
2022/01/31 04:02:02;;;;;;;36.10;4.78;;;;;;;;;;5112337;28;20441;-72
2022/01/31 04:04:28;;;;;;;22.10;3.20;;;;;;;;;;5113050;28;20047;-72
2022/01/31 04:06:54;;;;;;;23.20;2.92;;;;;;;;;;5112988;28;20116;-72
2022/01/31 04:09:20;;;;;;;25.10;3.03;;;;;;;;;;5110737;28;20510;-72
2022/01/31 04:11:46;;;;;;;25.70;3.78;;;5.70;99.90;;;;;;5109460;28;20476;-72
2022/01/31 04:14:12;;;;;;;29.10;4.03;;;6.10;99.90;;;;;;5092551;28;20040;-72
2022/01/31 04:16:39;;;;;;;38.15;3.75;;;;;;;;;;5093590;28;20043;-72
2022/01/31 04:19:05;;;;;;;28.73;4.05;;;;;;;;;;5093568;28;20114;-72
2022/01/31 04:21:31;;;;;;;26.58;3.58;;;;;;;;;;5092376;28;20123;-72
2022/01/31 04:23:58;;;;;;;24.83;3.67;;;;;;;;;;5094377;28;20036;-72
2022/01/31 04:26:31;;;;;;;22.00;3.25;;;;;;;;;;5112737;28;20044;-72
2022/01/31 04:29:07;;;;;;;30.52;5.07;;;;;;;;;;5111128;28;20051;-72
2022/01/31 04:31:41;;;;;;;27.80;3.22;;;;;;;;;;5112880;28;20056;-72
2022/01/31 04:34:09;;;;;;;21.88;3.05;;;;;;;;;;5112774;28;20087;-72
2022/01/31 04:36:35;;;;;;;19.45;2.65;;;;;;;;;;5104276;28;20036;-72
2022/01/31 04:39:02;;;;;;;16.05;2.55;;;;;;;;;;5093254;28;20040;-72
2022/01/31 04:41:28;;;;;;;13.63;2.20;;;;;;;;;;5092091;28;20044;-72
2022/01/31 04:43:58;;;;;;;14.35;1.75;;;;;;;;;;5075560;28;20097;-72
2022/01/31 04:46:24;;;;;;;17.27;2.28;;;;;;;;;;5092417;28;20075;-72
2022/01/31 04:48:50;;;;;;;30.73;2.72;;;;;;;;;;5092957;28;20436;-72
2022/01/31 04:51:17;;;;;;;15.63;2.28;;;;;;;;;;5092463;28;20438;-72
2022/01/31 04:53:43;;;;;;;16.67;2.35;;;;;;;;;;5098202;28;20035;-72
2022/01/31 04:56:09;;;;;;;22.80;3.25;;;;;;;;;;5112478;28;20067;-72
2022/01/31 04:58:35;;;;;;;17.73;2.30;;;;;;;;;;5103088;28;20032;-72
2022/01/31 05:01:01;;;;;;;20.98;2.70;;;6.10;99.90;;;;;;5093285;28;20484;-72
2022/01/31 05:03:27;;;;;;;24.08;4.05;;;;;;;;;;5092096;28;20170;-72
2022/01/31 05:05:53;;;;;;;21.00;2.17;;;;;;;;;;5093442;28;20086;-72
2022/01/31 05:08:25;;;;;;;14.85;3.17;;;;;;;;;;5093278;28;20044;-72
2022/01/31 05:10:50;;;;;;;14.93;2.07;;;5.90;99.90;;;;;;5108074;28;20039;-71
2022/01/31 05:13:17;;;;;;;19.92;2.47;;;5.40;99.90;;;;;;5115256;28;20399;-72
2022/01/31 05:15:43;;;;;;;26.73;3.15;;;;;;;;;;5117427;27;20036;-71
2022/01/31 05:18:09;;;;;;;22.40;2.85;;;5.40;99.90;;;;;;5111736;28;20051;-71
2022/01/31 05:20:36;;;;;;;22.00;3.17;;;;;;;;;;5095849;28;20423;-71
2022/01/31 05:23:02;;;;;;;19.05;2.38;;;;;;;;;;5114855;28;20043;-72
2022/01/31 05:25:28;;;;;;;26.85;3.15;;;;;;;;;;5115631;28;20118;-72
2022/01/31 05:27:54;;;;;;;18.60;2.88;;;;;;;;;;5114346;28;20100;-72
2022/01/31 05:30:22;;;;;;;22.48;3.67;;;;;;;;;;5114598;28;20130;-72
2022/01/31 05:32:48;;;;;;;26.52;3.30;;;;;;;;;;5114968;28;20499;-72
2022/01/31 05:35:14;;;;;;;25.35;2.78;;;;;;;;;;5081111;28;20430;-72
2022/01/31 05:37:41;;;;;;;27.70;3.30;;;;;;;;;;5095208;28;20102;-72
2022/01/31 05:40:08;;;;;;;37.22;3.53;;;5.80;99.90;;;;;;5114821;28;20044;-72
2022/01/31 05:42:34;;;;;;;25.42;3.08;;;;;;;;;;5115617;28;20036;-72
2022/01/31 05:45:00;;;;;;;22.15;2.80;;;5.70;99.90;;;;;;5099617;28;20064;-72
2022/01/31 05:47:27;;;;;;;21.70;2.25;;;;;;;;;;5095105;28;20169;-72
2022/01/31 05:49:53;;;;;;;21.33;3.03;;;;;;;;;;5096090;28;20513;-72
2022/01/31 05:52:19;;;;;;;21.55;2.05;;;;;;;;;;5095151;28;20484;-72
2022/01/31 05:54:45;;;;;;;22.27;3.28;;;5.90;99.90;;;;;;5108395;28;20035;-70
2022/01/31 05:57:11;;;;;;;16.80;2.10;;;;;;;;;;5115269;28;20134;-72
2022/01/31 05:59:41;;;;;;;21.50;3.00;;;5.70;99.90;;;;;;5113436;28;20042;-72
2022/01/31 06:02:07;;;;;;;18.45;2.22;;;;;;;;;;5098538;28;20036;-73
2022/01/31 06:04:33;;;;;;;23.17;2.72;;;;;;;;;;5098225;28;20046;-72
2022/01/31 06:07:00;;;;;;;22.98;3.83;;;5.50;99.90;;;;;;5104793;28;20035;-73
2022/01/31 06:09:27;;;;;;;20.25;2.38;;;;;;;;;;5102166;28;20051;-72
2022/01/31 06:11:53;;;;;;;21.23;2.65;;;;;;;;;;5107804;28;20044;-72
2022/01/31 06:14:20;;;;;;;21.77;2.88;;;;;;;;;;5114267;28;20126;-72
2022/01/31 06:16:46;;;;;;;23.67;2.88;;;;;;;;;;5100237;28;20040;-72
2022/01/31 06:19:12;;;;;;;24.88;2.90;;;;;;;;;;5095529;28;20040;-72
2022/01/31 06:21:38;;;;;;;17.38;2.47;;;;;;;;;;5094532;28;20036;-72
2022/01/31 06:24:09;;;;;;;15.98;2.15;;;;;;;;;;5095284;28;20040;-73
2022/01/31 06:26:35;;;;;;;23.02;2.45;;;;;;;;;;5095939;28;20048;-73
2022/01/31 06:29:01;;;;;;;23.48;2.30;;;;;;;;;;5096682;28;20036;-72
2022/01/31 06:31:29;;;;;;;23.08;2.30;;;5.80;99.90;;;;;;5094623;28;20035;-72
2022/01/31 06:33:55;;;;;;;19.90;2.80;;;;;;;;;;5094525;28;20128;-72
2022/01/31 06:36:23;;;;;;;21.67;3.25;;;;;;;;;;5094371;28;20044;-72
2022/01/31 06:38:49;;;;;;;25.60;3.08;;;;;;;;;;5095460;28;20036;-72
2022/01/31 06:41:17;;;;;;;27.05;3.45;;;;;;;;;;5094480;28;20044;-72
2022/01/31 06:43:44;;;;;;;34.55;4.05;;;;;;;;;;5094369;28;20046;-72
2022/01/31 06:46:10;;;;;;;29.63;3.85;;;;;;;;;;5094044;28;20044;-72
2022/01/31 06:48:36;;;;;;;30.42;3.10;;;;;;;;;;5095046;28;20036;-72
2022/01/31 06:51:02;;;;;;;23.50;3.55;;;;;;;;;;5093747;28;20056;-72
2022/01/31 06:53:29;;;;;;;29.48;4.13;;;;;;;;;;5077361;28;20118;-72
2022/01/31 06:55:58;;;;;;;22.92;3.42;;;5.80;99.90;;;;;;5099825;28;20126;-72
2022/01/31 06:58:25;;;;;;;31.38;3.55;;;;;;;;;;5112699;28;20036;-73
2022/01/31 07:00:51;;;;;;;29.05;3.47;;;;;;;;;;5115578;28;20063;-72
2022/01/31 07:03:18;;;;;;;29.58;4.40;;;;;;;;;;5114074;28;20043;-72
2022/01/31 07:05:44;;;;;;;35.65;3.70;;;5.70;99.90;;;;;;5114024;28;20123;-72
2022/01/31 07:08:11;;;;;;;37.03;5.38;;;5.80;99.90;;;;;;5095287;28;20035;-72
2022/01/31 07:10:38;;;;;;;50.63;6.28;;;;;;;;;;5113447;28;20035;-72
2022/01/31 07:13:13;;;;;;;41.53;4.72;;;5.90;99.90;;;;;;5112576;28;20047;-72
2022/01/31 07:15:39;;;;;;;47.30;5.13;;;5.90;99.90;;;;;;5093240;28;20039;-72
2022/01/31 07:18:05;;;;;;;42.67;4.55;;;;;;;;;;5096852;28;20039;-72
2022/01/31 07:20:42;;;;;;;38.22;4.30;;;;;;;;;;5111955;28;20035;-72
2022/01/31 07:23:18;;;;;;;36.42;5.10;;;;;;;;;;5114892;28;20377;-72
2022/01/31 07:25:44;;;;;;;36.17;5.28;;;;;;;;;;5112420;28;20050;-72
2022/01/31 07:28:16;;;;;;;61.33;6.55;;;6.00;99.90;;;;;;5107132;28;20404;-72
2022/01/31 07:30:48;;;;;;;48.90;6.45;;;6.30;99.90;;;;;;5106341;28;20042;-72
2022/01/31 07:33:15;;;;;;;46.95;5.95;;;6.20;99.90;;;;;;5113680;28;20510;-72
2022/01/31 07:35:42;;;;;;;43.08;4.35;;;6.10;99.90;;;;;;5110595;28;20044;-72
2022/01/31 07:38:08;;;;;;;49.35;5.50;;;;;;;;;;5112437;28;20044;-72
2022/01/31 07:40:34;;;;;;;47.97;4.78;;;;;;;;;;5112218;28;20515;-72
2022/01/31 07:43:01;;;;;;;30.55;3.35;;;;;;;;;;5106044;28;20036;-72
2022/01/31 07:45:27;;;;;;;37.65;4.30;;;;;;;;;;5095304;28;20089;-72
2022/01/31 07:47:53;;;;;;;22.65;3.05;;;;;;;;;;5096054;28;20079;-73
2022/01/31 07:50:19;;;;;;;15.98;2.47;;;;;;;;;;5102981;28;20052;-72
2022/01/31 07:52:45;;;;;;;20.38;2.65;;;;;;;;;;5092728;28;20438;-72
2022/01/31 07:55:12;;;;;;;30.70;3.65;;;;;;;;;;5092689;28;20046;-72
2022/01/31 07:57:40;;;;;;;24.27;3.33;;;;;;;;;;5094494;28;20499;-72
2022/01/31 08:00:06;;;;;;;24.33;3.00;;;;;;;;;;5105305;28;20096;-72
2022/01/31 08:02:32;;;;;;;25.95;3.50;;;;;;;;;;5092835;28;20118;-72
2022/01/31 08:04:59;;;;;;;33.90;3.08;;;;;;;;;;5094003;28;20098;-72
2022/01/31 08:07:25;;;;;;;27.52;4.10;;;;;;;;;;5077106;28;20048;-72
2022/01/31 08:09:51;;;;;;;33.28;3.10;;;;;;;;;;5106013;28;20044;-72
2022/01/31 08:12:17;;;;;;;33.00;3.55;;;;;;;;;;5092530;28;20032;-72
2022/01/31 08:14:45;;;;;;;29.73;3.85;;;;;;;;;;5092410;28;20044;-72
2022/01/31 08:17:11;;;;;;;31.25;4.05;;;;;;;;;;5093481;28;20125;-72
2022/01/31 08:19:37;;;;;;;23.45;3.25;;;;;;;;;;5095350;28;20088;-72
2022/01/31 08:22:03;;;;;;;28.58;2.83;;;6.50;99.90;;;;;;5079080;28;20043;-73
2022/01/31 08:24:29;;;;;;;22.80;2.70;;;;;;;;;;5112707;28;20044;-73
2022/01/31 08:26:55;;;;;;;30.92;3.00;;;;;;;;;;5112518;28;20039;-72
2022/01/31 08:29:35;;;;;;;27.98;2.50;;;;;;;;;;5109684;28;20058;-72
2022/01/31 08:32:06;;;;;;;17.55;3.20;;;;;;;;;;5092453;28;20047;-72
2022/01/31 08:37:17;;;;;;;13.30;1.98;;;;;;;;;;5093031;28;20554;-72
2022/01/31 08:39:43;;;;;;;12.38;2.00;;;;;;;;;;5097104;28;20128;-72
2022/01/31 08:42:09;;;;;;;15.05;2.50;;;;;;;;;;5092264;28;20036;-73
2022/01/31 08:44:35;;;;;;;28.98;2.88;;;;;;;;;;5092118;28;20072;-73
2022/01/31 08:47:01;;;;;;;17.60;2.22;;;;;;;;;;5093437;28;20075;-72
2022/01/31 08:49:28;;;;;;;17.45;3.10;;;;;;;;;;5102482;28;20081;-72
2022/01/31 08:51:54;;;;;;;13.18;1.45;;;;;;;;;;5099921;28;20052;-72
2022/01/31 08:54:20;;;;;;;19.70;2.45;;;;;;;;;;5116660;28;20051;-73
2022/01/31 08:56:47;;;;;;;18.15;2.47;;;;;;;;;;5116756;28;20404;-72
2022/01/31 08:59:16;;;;;;;17.73;2.25;;;;;;;;;;5113805;28;20054;-72
2022/01/31 09:01:43;;;;;;;13.35;2.15;;;;;;;;;;5115515;28;20065;-72
2022/01/31 09:04:11;;;;;;;13.55;1.70;;;;;;;;;;5081189;28;20040;-73
2022/01/31 09:06:38;;;;;;;6.32;1.50;;;;;;;;;;5096660;28;20044;-72
2022/01/31 09:09:08;;;;;;;19.73;1.75;;;6.80;99.90;;;;;;5085200;28;20155;-73
2022/01/31 09:11:37;;;;;;;12.15;1.60;;;6.30;99.90;;;;;;5110180;28;20131;-73
2022/01/31 09:14:03;;;;;;;14.00;2.63;;;6.40;99.90;;;;;;5116075;28;20407;-73
2022/01/31 09:16:30;;;;;;;15.02;2.58;;;6.60;99.90;;;;;;5096927;28;20087;-73
2022/01/31 09:18:56;;;;;;;7.82;1.85;;;;;;;;;;5100667;28;20039;-73
2022/01/31 09:21:22;;;;;;;10.88;2.53;;;6.70;99.90;;;;;;5104382;28;20036;-73
2022/01/31 09:23:52;;;;;;;7.57;1.80;;;;;;;;;;5097284;28;20436;-73
2022/01/31 09:26:22;;;;;;;20.95;2.53;;;6.40;99.90;;;;;;5107938;28;20424;-73
2022/01/31 09:28:50;;;;;;;22.27;2.30;;;6.40;99.90;;;;;;5114515;28;20043;-73
2022/01/31 09:31:16;;;;;;;21.23;3.00;;;;;;;;;;5097131;28;20042;-73
2022/01/31 09:33:42;;;;;;;15.93;2.05;;;;;;;;;;5105117;28;20088;-74
2022/01/31 09:36:08;;;;;;;17.17;3.25;;;;;;;;;;5115644;28;20502;-73
2022/01/31 09:38:34;;;;;;;24.73;3.00;;;;;;;;;;5104254;28;20044;-73
2022/01/31 09:41:00;;;;;;;23.45;4.43;;;;;;;;;;5086517;28;20044;-73
2022/01/31 09:43:57;;;;;;;19.63;2.47;;;;;;;;;;5096201;28;20067;-74
2022/01/31 09:48:54;;;;;;;25.08;4.63;;;;;;;;;;5094886;28;20048;-73
2022/01/31 09:51:23;;;;;;;26.02;3.90;;;7.10;99.90;;;;;;5102718;28;20492;-73
2022/01/31 09:53:52;;;;;;;33.60;3.53;;;7.10;99.90;;;;;;5108355;28;20054;-73
2022/01/31 09:56:25;;;;;;;27.75;3.78;;;7.30;99.90;;;;;;5113153;28;20495;-73
2022/01/31 09:58:54;;;;;;;32.10;4.25;;;7.00;99.90;;;;;;5112173;28;20040;-73
2022/01/31 10:01:25;;;;;;;27.17;3.85;;;7.30;99.90;;;;;;5097398;28;20040;-73
2022/01/31 10:03:57;;;;;;;40.95;3.45;;;7.10;99.90;;;;;;5098239;28;20036;-73
2022/01/31 10:06:29;;;;;;;27.42;4.65;;;7.20;99.90;;;;;;5101730;28;20043;-73
2022/01/31 10:09:19;;;;;;;24.60;3.07;;;7.10;99.90;;;;;;5086441;28;20048;-72
2022/01/31 10:16:58;;;;;;;23.80;3.30;;;;;;;;;;5109433;28;20080;-73
2022/01/31 10:19:24;;;;;;;17.30;2.15;;;;;;;;;;5095358;28;20047;-73
2022/01/31 10:21:56;;;;;;;20.05;2.08;;;;;;;;;;5094586;28;20101;-73
2022/01/31 10:24:24;;;;;;;21.95;2.25;;;7.00;99.90;;;;;;5088846;28;20035;-73
2022/01/31 10:26:51;;;;;;;16.73;2.17;;;;;;;;;;5092028;28;20089;-74
2022/01/31 10:29:19;;;;;;;23.02;1.85;;;7.10;99.90;;;;;;5078940;28;20044;-74
2022/01/31 10:32:04;;;;;;;17.40;2.10;;;;;;;;;;5112836;28;20044;-74
2022/01/31 10:34:33;;;;;;;15.50;2.08;;;7.40;99.90;;;;;;5114563;28;20502;-73
2022/01/31 10:37:05;;;;;;;23.85;3.03;;;7.10;99.90;;;;;;5112308;28;20043;-75
2022/01/31 10:53:15;;;;;;;23.05;2.30;;;;;;;;;;5096792;28;20051;-73
2022/01/31 10:55:41;;;;;;;15.45;2.05;;;;;;;;;;5095848;28;20039;-72
2022/01/31 10:58:12;;;;;;;21.27;3.17;;;;;;;;;;5102958;28;20043;-73
2022/01/31 11:00:40;;;;;;;16.67;2.67;;;7.30;99.90;;;;;;5093644;28;20075;-73
2022/01/31 11:03:28;;;;;;;28.48;3.53;;;7.40;99.90;;;;;;5094910;28;20117;-73
2022/01/31 11:05:55;;;;;;;29.88;3.78;;;;;;;;;;5100484;28;20035;-73
2022/01/31 11:08:21;;;;;;;33.13;3.42;;;;;;;;;;5110999;28;20503;-74
2022/01/31 11:10:47;;;;;;;39.85;4.93;;;;;;;;;;5111399;28;20050;-73
2022/01/31 11:13:17;;;;;;;52.63;5.38;;;7.30;99.90;;;;;;5110906;28;20115;-73
2022/01/31 11:15:44;;;;;;;31.38;4.55;;;7.30;99.90;;;;;;5101154;28;20085;-73
2022/01/31 11:18:12;;;;;;;36.35;4.90;;;7.30;99.90;;;;;;5094079;28;20047;-74
2022/01/31 11:20:43;;;;;;;54.70;5.85;;;;;;;;;;5112941;28;20044;-74
2022/01/31 11:23:09;;;;;;;55.20;5.63;;;7.40;99.90;;;;;;5099612;28;20051;-74
2022/01/31 11:25:39;;;;;;;47.22;4.93;;;7.70;99.90;;;;;;5083330;28;20110;-74
2022/01/31 11:28:09;;;;;;;42.47;6.90;;;7.60;99.90;;;;;;5101040;28;20051;-74
2022/01/31 11:30:36;;;;;;;36.65;3.90;;;;;;;;;;5093192;28;20539;-74
2022/01/31 11:33:02;;;;;;;36.63;4.32;;;;;;;;;;5094592;28;20075;-73
2022/01/31 11:35:28;;;;;;;43.40;5.38;;;;;;;;;;5103727;28;20042;-74
2022/01/31 11:37:55;;;;;;;39.17;4.65;;;;;;;;;;5109789;28;20081;-74
2022/01/31 11:40:22;;;;;;;46.95;6.80;;;7.90;99.90;;;;;;5098871;28;20040;-74
2022/01/31 11:42:49;;;;;;;43.63;6.10;;;7.80;99.90;;;;;;5096699;28;20036;-73
2022/01/31 11:45:23;;;;;;;49.45;5.03;;;7.90;99.90;;;;;;5100617;28;20093;-73
2022/01/31 11:47:50;;;;;;;35.20;5.22;;;7.90;99.90;;;;;;5092684;28;20051;-75
2022/01/31 11:50:17;;;;;;;35.67;4.35;;;8.00;99.90;;;;;;5092634;28;20060;-74
2022/01/31 11:52:43;;;;;;;20.63;3.13;;;;;;;;;;5096450;28;20068;-73
2022/01/31 11:55:12;;;;;;;24.20;2.65;;;8.10;99.90;;;;;;5108398;28;20055;-74
2022/01/31 11:57:39;;;;;;;30.50;3.03;;;8.20;99.90;;;;;;5091917;28;20489;-74
2022/01/31 12:00:11;;;;;;;20.73;2.78;;;7.70;99.90;;;;;;5075732;28;20090;-74
2022/01/31 12:02:41;;;;;;;23.70;3.13;;;;;;;;;;5093681;28;20031;-73
2022/01/31 12:05:10;;;;;;;35.28;5.13;;;7.90;99.90;;;;;;5096596;28;20071;-74
2022/01/31 12:07:42;;;;;;;35.38;3.85;;;8.00;99.90;;;;;;5097995;28;20047;-74
2022/01/31 12:10:20;;;;;;;34.35;3.58;;;;;;;;;;5092391;28;20043;-74
2022/01/31 12:12:54;;;;;;;22.80;3.22;;;;;;;;;;5098894;28;20983;-74
2022/01/31 12:24:06;;;;;;;37.63;4.20;;;8.00;99.90;;;;;;5101973;28;20043;-74
2022/01/31 12:26:32;;;;;;;37.17;4.45;;;;;;;;;;5100322;28;20046;-74
2022/01/31 12:29:10;;;;;;;38.72;4.80;;;8.10;99.90;;;;;;5102106;28;20048;-74
2022/01/31 12:31:36;;;;;;;54.03;5.38;;;;;;;;;;5103641;28;20039;-74
2022/01/31 12:34:09;;;;;;;52.33;5.40;;;7.90;99.90;;;;;;5102872;28;20040;-73
2022/01/31 12:36:35;;;;;;;47.88;5.93;;;;;;;;;;5100325;28;20044;-74
2022/01/31 12:39:02;;;;;;;59.88;7.25;;;;;;;;;;5082404;28;20110;-74
2022/01/31 12:41:32;;;;;;;52.17;6.10;;;7.90;99.90;;;;;;5099219;28;20060;-74
2022/01/31 12:44:29;;;;;;;46.65;5.32;;;8.10;99.90;;;;;;5087081;28;20031;-74
2022/01/31 12:47:11;;;;;;;55.55;5.75;;;7.90;99.90;;;;;;5093311;28;20044;-74
2022/01/31 12:49:37;;;;;;;44.97;6.95;;;;;;;;;;5110846;28;20057;-74
2022/01/31 12:52:08;;;;;;;61.92;6.78;;;8.00;99.90;;;;;;5109372;28;20480;-74
2022/01/31 12:54:38;;;;;;;52.92;7.93;;;8.20;99.90;;;;;;5077130;28;20118;-74
2022/01/31 12:57:10;;;;;;;59.40;6.35;;;;;;;;;;5097119;28;20075;-74
2022/01/31 12:59:36;;;;;;;44.53;6.57;;;;;;;;;;5091171;28;20043;-74
2022/01/31 13:02:08;;;;;;;51.30;5.47;;;7.60;99.90;;;;;;5092207;28;20032;-74
2022/01/31 13:04:34;;;;;;;50.03;5.82;;;8.40;99.90;;;;;;5098688;28;20468;-74
2022/01/31 13:07:04;;;;;;;73.47;6.70;;;8.00;99.90;;;;;;5103354;28;20126;-74
2022/01/31 13:09:35;;;;;;;47.65;7.32;;;7.90;99.90;;;;;;5097990;28;20511;-73
2022/01/31 13:12:05;;;;;;;42.57;5.63;;;7.90;99.90;;;;;;5101524;28;20123;-74
2022/01/31 13:14:34;;;;;;;57.25;6.10;;;8.00;99.90;;;;;;5107796;28;20282;-73
2022/01/31 13:19:34;;;;;;;55.25;5.97;;;8.30;99.90;;;;;;5092077;28;20067;-74
2022/01/31 13:22:31;;;;;;;56.33;6.28;;;7.80;99.90;;;;;;5099468;28;20119;-74
2022/01/31 13:25:03;;;;;;;50.50;6.10;;;7.90;99.90;;;;;;5092190;28;20369;-75
2022/01/31 13:27:37;;;;;;;54.78;6.47;;;8.40;99.90;;;;;;5094254;28;20101;-75
2022/01/31 13:30:11;;;;;;;42.03;6.35;;;7.80;99.90;;;;;;5091883;28;20071;-74
2022/01/31 13:32:38;;;;;;;44.05;6.68;;;;;;;;;;5098693;28;20361;-74
2022/01/31 13:35:04;;;;;;;56.70;6.60;;;;;;;;;;5095357;28;20039;-74
2022/01/31 13:37:38;;;;;;;42.70;5.15;;;7.80;99.90;;;;;;5103317;28;20043;-74
2022/01/31 13:40:10;;;;;;;51.92;5.53;;;7.80;99.90;;;;;;5095134;28;20081;-72
2022/01/31 13:42:38;;;;;;;41.72;7.40;;;;;;;;;;5096652;28;20051;-74
2022/01/31 13:45:18;;;;;;;59.67;6.35;;;7.90;99.90;;;;;;5103428;28;20054;-74
2022/01/31 13:47:52;;;;;;;42.75;5.15;;;;;;;;;;5095071;28;20047;-74
2022/01/31 13:50:18;;;;;;;37.45;5.32;;;;;;;;;;5095769;28;20056;-74
2022/01/31 13:53:02;;;;;;;36.67;4.35;;;7.80;99.90;;;;;;5099371;28;20091;-75
2022/01/31 13:55:29;;;;;;;46.47;4.68;;;;;;;;;;5100899;28;20048;-74
2022/01/31 13:57:55;;;;;;;24.50;4.38;;;;;;;;;;5086904;28;20123;-74
2022/01/31 14:00:23;;;;;;;41.13;5.90;;;7.90;99.90;;;;;;5112059;28;20169;-74
2022/01/31 14:03:05;;;;;;;22.42;3.25;;;;;;;;;;5097621;28;20047;-73
2022/01/31 14:05:37;;;;;;;25.80;4.13;;;7.80;99.90;;;;;;5094722;28;20042;-73
2022/01/31 14:08:08;;;;;;;24.10;3.33;;;8.00;99.90;;;;;;5079288;28;20130;-74
2022/01/31 14:10:35;;;;;;;15.80;2.83;;;;;;;;;;5105970;28;20387;-73
2022/01/31 14:13:19;;;;;;;21.05;3.33;;;8.20;99.90;;;;;;5113351;28;20055;-73
2022/01/31 14:15:48;;;;;;;19.25;3.83;;;8.10;99.90;;;;;;5105254;28;20035;-74
2022/01/31 14:18:19;;;;;;;21.63;3.47;;;7.90;99.90;;;;;;5098935;28;20051;-74
2022/01/31 14:20:46;;;;;;;25.00;3.33;;;;;;;;;;5095041;28;20154;-74
2022/01/31 14:23:12;;;;;;;20.35;4.38;;;;;;;;;;5094837;28;20486;-74
2022/01/31 14:25:49;;;;;;;28.52;3.75;;;7.90;99.90;;;;;;5077735;28;20423;-74
2022/01/31 14:28:16;;;;;;;22.05;3.00;;;7.90;99.90;;;;;;5094305;28;20101;-74
2022/01/31 14:30:52;;;;;;;16.55;2.90;;;8.00;99.90;;;;;;5094326;28;20048;-74
2022/01/31 14:33:21;;;;;;;25.52;3.17;;;7.90;99.90;;;;;;5094509;28;20036;-73
2022/01/31 14:35:48;;;;;;;18.25;3.28;;;;;;;;;;5094113;28;20040;-73